createdAt,value
2023-01-29T00:00:23.878Z,99243.73
2023-01-29T00:02:52.686Z,99240.05
2023-01-29T00:05:27.923Z,99239.48
2023-01-29T00:07:57.259Z,99234.41
2023-01-29T00:10:26.156Z,99231.48
2023-01-29T00:12:54.837Z,99229.04
2023-01-29T00:15:23.420Z,99233.42
2023-01-29T00:17:51.915Z,99234.92
2023-01-29T00:20:20.375Z,99238.31
2023-01-29T00:22:50.192Z,99239.83
2023-01-29T00:25:18.579Z,99244.38
2023-01-29T00:27:47.459Z,99245.58
2023-01-29T00:30:20.073Z,99244.52
2023-01-29T00:32:48.936Z,99243.61
2023-01-29T00:35:17.819Z,99240.13
2023-01-29T00:37:46.944Z,99241.65
2023-01-29T00:40:17.005Z,99243.19
2023-01-29T00:43:04.491Z,99243.27
2023-01-29T00:45:36.861Z,99239.26
2023-01-29T00:48:07.562Z,99243.98
2023-01-29T00:50:36.349Z,99249.77
2023-01-29T00:53:05.142Z,99244.65
2023-01-29T00:55:34.139Z,99240.33
2023-01-29T00:58:03.779Z,99240.23
2023-01-29T01:00:33.209Z,99241.05
2023-01-29T01:03:08.172Z,99241.62
2023-01-29T01:05:37.306Z,99240.02
2023-01-29T01:08:26.032Z,99245.55
2023-01-29T01:11:05.955Z,99242.71
2023-01-29T01:13:34.768Z,99240.15
2023-01-29T01:16:12.820Z,99240.14
2023-01-29T01:18:41.868Z,99236.36
2023-01-29T01:21:10.346Z,99228.73
2023-01-29T01:23:39.130Z,99230.15
2023-01-29T01:26:11.439Z,99236.42
2023-01-29T01:28:39.888Z,99239.66
2023-01-29T01:31:10.620Z,99233.36
2023-01-29T01:33:39.403Z,99229.20
2023-01-29T01:36:09.978Z,99218.65
2023-01-29T01:38:48.030Z,99224.90
2023-01-29T01:41:19.080Z,99225.05
2023-01-29T01:43:54.867Z,99225.02
2023-01-29T01:46:24.022Z,99228.05
2023-01-29T01:49:05.403Z,99236.10
2023-01-29T01:51:36.574Z,99234.67
2023-01-29T01:54:08.690Z,99227.09
2023-01-29T01:56:41.294Z,99227.27
2023-01-29T01:59:11.940Z,99234.08
2023-01-29T02:01:43.089Z,99235.44
2023-01-29T02:04:32.991Z,99233.10
2023-01-29T02:07:22.326Z,99232.30
2023-01-29T02:09:58.218Z,99227.52
2023-01-29T02:12:26.960Z,99228.86
2023-01-29T02:14:56.736Z,99231.67
2023-01-29T02:17:25.412Z,99230.92
2023-01-29T02:20:12.993Z,99227.25
2023-01-29T02:23:27.349Z,99229.02
2023-01-29T02:26:05.141Z,99227.22
2023-01-29T02:29:27.289Z,99232.72
2023-01-29T02:32:17.520Z,99235.07
2023-01-29T02:35:10.876Z,99242.05
2023-01-29T02:37:40.539Z,99233.83
2023-01-29T02:40:17.548Z,99235.17
2023-01-29T02:43:20.100Z,99230.08
2023-01-29T02:45:54.210Z,99232.15
2023-01-29T02:48:24.230Z,99233.80
2023-01-29T02:51:03.879Z,99238.15
2023-01-29T02:53:42.490Z,99237.12
2023-01-29T02:56:17.660Z,99235.44
2023-01-29T02:58:47.563Z,99232.38
2023-01-29T03:01:35.466Z,99230.41
2023-01-29T03:04:07.027Z,99231.41
2023-01-29T03:06:38.377Z,99234.35
2023-01-29T03:09:20.203Z,99233.43
2023-01-29T03:11:53.360Z,99232.19
2023-01-29T03:15:04.146Z,99232.05
2023-01-29T03:17:36.966Z,99232.74
2023-01-29T03:20:08.412Z,99235.92
2023-01-29T03:22:37.182Z,99238.70
2023-01-29T03:25:25.541Z,99234.33
2023-01-29T03:28:18.571Z,99232.74
2023-01-29T03:31:14.837Z,99235.67
2023-01-29T03:34:16.641Z,99233.32
2023-01-29T03:36:55.909Z,99238.36
2023-01-29T03:39:28.682Z,99240.42
2023-01-29T03:42:10.642Z,99242.96
2023-01-29T03:45:02.503Z,99243.91
2023-01-29T03:47:59.134Z,99239.74
2023-01-29T03:58:28.711Z,99234.27
2023-01-29T04:01:00.552Z,99234.41
2023-01-29T04:03:33.638Z,99233.36
2023-01-29T04:06:12.659Z,99235.30
2023-01-29T04:08:57.431Z,99235.19
2023-01-29T04:11:27.041Z,99235.04
2023-01-29T04:13:56.791Z,99233.89
2023-01-29T04:16:38.723Z,99235.79
2023-01-29T04:19:24.120Z,99232.11
2023-01-29T04:21:56.389Z,99235.42
2023-01-29T04:24:24.895Z,99233.52
2023-01-29T04:27:29.159Z,99235.15
2023-01-29T04:30:20.501Z,99234.56
2023-01-29T04:33:04.775Z,99234.34
2023-01-29T04:35:42.961Z,99226.61
2023-01-29T04:38:11.644Z,99233.50
2023-01-29T04:40:58.467Z,99232.82
2023-01-29T04:43:56.749Z,99232.91
2023-01-29T04:46:34.406Z,99227.95
2023-01-29T04:49:10.695Z,99233.92
2023-01-29T04:51:52.796Z,99234.04
2023-01-29T04:54:26.207Z,99234.11
2023-01-29T04:57:02.558Z,99233.52
2023-01-29T04:59:33.926Z,99231.94
2023-01-29T05:02:05.252Z,99233.95
2023-01-29T05:04:34.763Z,99231.75
2023-01-29T05:07:04.996Z,99233.27
2023-01-29T05:09:33.581Z,99230.45
2023-01-29T05:12:02.353Z,99233.73
2023-01-29T05:14:31.255Z,99232.65
2023-01-29T05:17:00.128Z,99238.06
2023-01-29T05:19:29.437Z,99241.38
2023-01-29T05:21:58.015Z,99242.48
2023-01-29T05:24:26.849Z,99244.13
2023-01-29T05:27:16.997Z,99249.42
2023-01-29T05:29:46.975Z,99253.00
2023-01-29T05:32:16.409Z,99253.70
2023-01-29T05:34:48.791Z,99258.95
2023-01-29T05:37:17.444Z,99255.27
2023-01-29T05:39:46.258Z,99257.06
2023-01-29T05:42:18.946Z,99257.65
2023-01-29T05:44:47.473Z,99258.02
2023-01-29T05:47:20.141Z,99263.70
2023-01-29T05:49:48.584Z,99259.67
2023-01-29T05:52:17.152Z,99258.59
2023-01-29T05:54:45.847Z,99262.61
2023-01-29T05:57:15.143Z,99265.05
2023-01-29T05:59:43.625Z,99264.83
2023-01-29T06:02:12.177Z,99266.67
2023-01-29T06:04:40.931Z,99266.37
2023-01-29T06:14:51.400Z,99271.98
2023-01-29T06:17:20.752Z,99269.83
2023-01-29T06:19:49.408Z,99274.73
2023-01-29T06:22:17.969Z,99277.97
2023-01-29T06:24:46.451Z,99279.25
2023-01-29T06:27:14.941Z,99278.85
2023-01-29T06:29:43.412Z,99276.64
2023-01-29T06:32:11.887Z,99280.88
2023-01-29T06:34:42.021Z,99283.49
2023-01-29T06:37:11.251Z,99279.59
2023-01-29T06:39:39.823Z,99278.35
2023-01-29T06:42:08.886Z,99278.36
2023-01-29T06:44:37.468Z,99279.05
2023-01-29T06:47:06.153Z,99275.98
2023-01-29T06:49:34.798Z,99274.13
2023-01-29T06:52:03.627Z,99276.33
2023-01-29T06:54:32.321Z,99275.70
2023-01-29T06:57:00.903Z,99275.90
2023-01-29T06:59:29.586Z,99269.98
2023-01-29T07:01:58.196Z,99273.19
2023-01-29T07:04:27.058Z,99265.21
2023-01-29T07:06:55.769Z,99268.41
2023-01-29T07:09:24.425Z,99264.05
2023-01-29T07:11:53.352Z,99262.73
2023-01-29T07:14:22.474Z,99261.36
2023-01-29T07:16:51.228Z,99267.02
2023-01-29T07:19:19.893Z,99267.16
2023-01-29T07:21:48.565Z,99262.72
2023-01-29T07:24:19.430Z,99268.60
2023-01-29T07:26:48.089Z,99267.73
2023-01-29T07:29:16.672Z,99269.38
2023-01-29T07:31:45.292Z,99266.92
2023-01-29T07:34:14.043Z,99265.90
2023-01-29T07:36:42.946Z,99267.19
2023-01-29T07:39:11.535Z,99266.95
2023-01-29T07:41:40.113Z,99264.86
2023-01-29T07:44:17.414Z,99267.19
2023-01-29T07:46:46.070Z,99269.73
2023-01-29T07:57:45.947Z,99267.12
2023-01-29T08:00:14.496Z,99268.14
2023-01-29T08:02:41.762Z,99266.61
2023-01-29T08:05:09.831Z,99265.95
2023-01-29T08:07:38.824Z,99263.52
2023-01-29T08:10:06.176Z,99268.71
2023-01-29T08:12:33.539Z,99265.90
2023-01-29T08:15:00.887Z,99270.73
2023-01-29T08:17:28.968Z,99272.02
2023-01-29T08:27:34.358Z,99290.66
2023-01-29T08:30:02.832Z,99295.73
2023-01-29T08:32:35.777Z,99294.86
2023-01-29T08:35:05.629Z,99299.60
2023-01-29T08:37:34.719Z,99290.82
2023-01-29T08:40:04.327Z,99290.83
2023-01-29T08:42:33.163Z,99291.41
2023-01-29T08:45:01.806Z,99294.33
2023-01-29T08:47:31.052Z,99290.98
2023-01-29T08:49:59.683Z,99289.38
2023-01-29T08:52:28.169Z,99293.77
2023-01-29T08:54:59.556Z,99289.31
2023-01-29T08:57:28.713Z,99286.34
2023-01-29T08:59:57.392Z,99288.86
2023-01-29T09:02:27.685Z,99278.90
2023-01-29T09:04:56.769Z,99281.34
2023-01-29T09:07:25.395Z,99281.51
2023-01-29T09:09:54.195Z,99278.70
2023-01-29T09:12:23.282Z,99278.27
2023-01-29T09:14:54.225Z,99278.05
2023-01-29T09:17:22.815Z,99272.36
2023-01-29T09:19:53.364Z,99267.11
2023-01-29T09:22:22.224Z,99265.59
2023-01-29T09:24:51.018Z,99261.48
2023-01-29T09:27:19.795Z,99260.22
2023-01-29T09:29:48.507Z,99258.88
2023-01-29T09:32:37.655Z,99255.98
2023-01-29T09:35:06.639Z,99258.60
2023-01-29T09:37:34.924Z,99255.71
2023-01-29T09:40:04.078Z,99254.95
2023-01-29T09:42:42.874Z,99257.04
2023-01-29T09:45:16.093Z,99253.42
2023-01-29T09:47:45.219Z,99247.39
2023-01-29T09:50:20.288Z,99245.20
2023-01-29T09:53:33.094Z,99247.77
2023-01-29T09:56:03.272Z,99245.48
2023-01-29T09:58:34.262Z,99245.27
2023-01-29T10:01:41.420Z,99237.80
2023-01-29T10:04:39.773Z,99239.77
2023-01-29T10:07:16.479Z,99239.79
2023-01-29T10:10:07.151Z,99239.46
2023-01-29T10:12:51.435Z,99235.89
2023-01-29T10:16:01.827Z,99230.96
2023-01-29T10:19:06.317Z,99228.07
2023-01-29T10:21:57.125Z,99226.69
2023-01-29T10:25:06.675Z,99228.73
2023-01-29T10:27:39.011Z,99223.44
2023-01-29T10:30:21.753Z,99221.19
2023-01-29T10:32:50.436Z,99219.36
2023-01-29T10:35:27.624Z,99214.94
2023-01-29T10:38:09.438Z,99217.95
2023-01-29T10:40:40.280Z,99210.37
2023-01-29T10:43:17.229Z,99203.37
2023-01-29T10:46:20.833Z,99197.41
2023-01-29T10:48:59.350Z,99200.19
2023-01-29T10:51:56.043Z,99197.16
2023-01-29T10:54:49.352Z,99199.80
2023-01-29T10:57:42.942Z,99197.80
2023-01-29T11:00:26.003Z,99191.99
2023-01-29T11:02:54.596Z,99181.59
2023-01-29T11:05:35.339Z,99182.44
2023-01-29T11:08:07.354Z,99175.80
2023-01-29T11:10:40.036Z,99168.12
2023-01-29T11:13:18.147Z,99170.35
2023-01-29T11:15:46.726Z,99168.27
2023-01-29T11:18:16.239Z,99170.08
2023-01-29T11:20:45.551Z,99165.86
2023-01-29T11:23:33.681Z,99165.20
2023-01-29T11:26:02.168Z,99166.64
2023-01-29T11:28:39.950Z,99160.09
2023-01-29T11:31:22.740Z,99156.15
2023-01-29T11:33:52.594Z,99157.83
2023-01-29T11:36:23.128Z,99153.86
2023-01-29T11:39:15.757Z,99147.23
2023-01-29T11:42:05.031Z,99142.61
2023-01-29T11:44:33.881Z,99140.43
2023-01-29T11:47:16.223Z,99133.42
2023-01-29T11:49:54.743Z,99135.95
2023-01-29T11:52:34.490Z,99132.45
2023-01-29T11:55:05.770Z,99124.70
2023-01-29T11:57:40.977Z,99124.19
2023-01-29T12:00:33.823Z,99125.84
2023-01-29T12:03:12.576Z,99124.48
2023-01-29T12:05:41.161Z,99124.56
2023-01-29T12:08:17.173Z,99126.02
2023-01-29T12:10:45.862Z,99122.50
2023-01-29T12:13:27.965Z,99114.61
2023-01-29T12:16:10.714Z,99116.20
2023-01-29T12:18:41.931Z,99113.11
2023-01-29T12:21:21.120Z,99109.40
2023-01-29T12:24:04.522Z,99110.38
2023-01-29T12:26:55.600Z,99115.55
2023-01-29T12:29:45.998Z,99107.29
2023-01-29T12:32:39.351Z,99106.79
2023-01-29T12:35:29.887Z,99100.52
2023-01-29T12:38:07.342Z,99107.55
2023-01-29T12:40:40.427Z,99111.52
2023-01-29T12:43:20.316Z,99107.37
2023-01-29T12:45:52.533Z,99106.65
2023-01-29T12:48:28.612Z,99107.64
2023-01-29T12:50:59.363Z,99106.32
2023-01-29T12:53:33.044Z,99104.69
2023-01-29T12:56:13.652Z,99100.73
2023-01-29T12:58:50.603Z,99092.85
2023-01-29T13:01:32.482Z,99100.14
2023-01-29T13:04:07.339Z,99100.23
2023-01-29T13:06:41.880Z,99101.95
2023-01-29T13:09:14.503Z,99103.69
2023-01-29T13:11:59.888Z,99101.57
2023-01-29T13:15:04.315Z,99097.95
2023-01-29T13:17:45.698Z,99100.73
2023-01-29T13:20:34.455Z,99100.94
2023-01-29T13:23:18.093Z,99092.30
2023-01-29T13:25:47.077Z,99095.39
2023-01-29T13:28:23.441Z,99094.15
2023-01-29T13:31:10.901Z,99092.92
2023-01-29T13:33:40.782Z,99094.85
2023-01-29T13:36:15.661Z,99094.98
2023-01-29T13:38:45.427Z,99090.27
2023-01-29T13:41:13.910Z,99086.34
2023-01-29T13:43:43.918Z,99086.13
2023-01-29T13:46:18.115Z,99086.34
2023-01-29T13:48:47.857Z,99084.16
2023-01-29T13:51:20.591Z,99090.55
2023-01-29T13:54:10.148Z,99091.12
2023-01-29T13:56:48.007Z,99095.63
2023-01-29T13:59:53.618Z,99088.03
2023-01-29T14:02:25.005Z,99091.64
2023-01-29T14:05:31.519Z,99093.81
2023-01-29T14:08:06.509Z,99092.61
2023-01-29T14:10:36.429Z,99089.17
2023-01-29T14:13:19.654Z,99085.02
2023-01-29T14:15:57.555Z,99081.23
2023-01-29T14:18:30.021Z,99077.22
2023-01-29T14:21:12.328Z,99078.51
2023-01-29T14:23:47.119Z,99079.05
2023-01-29T14:26:33.620Z,99082.09
2023-01-29T14:29:08.392Z,99080.19
2023-01-29T14:31:44.018Z,99080.91
2023-01-29T14:34:19.312Z,99081.41
2023-01-29T14:36:47.959Z,99074.43
2023-01-29T14:39:34.872Z,99075.66
2023-01-29T14:42:05.589Z,99076.00
2023-01-29T14:44:47.785Z,99074.63
2023-01-29T14:47:43.841Z,99073.09
2023-01-29T14:50:32.206Z,99070.53
2023-01-29T14:53:09.363Z,99063.48
2023-01-29T14:55:40.055Z,99069.21
2023-01-29T14:58:33.459Z,99068.20
2023-01-29T15:01:02.505Z,99062.46
2023-01-29T15:03:37.010Z,99056.73
2023-01-29T15:06:05.767Z,99060.02
2023-01-29T15:08:54.212Z,99057.22
2023-01-29T15:11:41.025Z,99054.34
2023-01-29T15:14:24.153Z,99055.52
2023-01-29T15:17:07.014Z,99058.48
2023-01-29T15:19:45.284Z,99057.81
2023-01-29T15:22:20.202Z,99056.73
2023-01-29T15:25:03.359Z,99056.94
2023-01-29T15:27:32.128Z,99050.98
2023-01-29T15:30:03.208Z,99055.94
2023-01-29T15:32:39.935Z,99057.95
2023-01-29T15:35:46.282Z,99057.36
2023-01-29T15:38:14.986Z,99058.77
2023-01-29T15:40:59.499Z,99058.52
2023-01-29T15:43:48.002Z,99054.58
2023-01-29T15:46:21.517Z,99058.67
2023-01-29T15:48:51.506Z,99056.61
2023-01-29T15:51:24.622Z,99057.31
2023-01-29T15:54:04.068Z,99058.66
2023-01-29T15:56:52.081Z,99064.20
2023-01-29T15:59:26.298Z,99066.41
2023-01-29T16:01:54.932Z,99073.48
2023-01-29T16:04:29.194Z,99076.23
2023-01-29T16:06:59.964Z,99078.11
2023-01-29T16:09:29.089Z,99082.98
2023-01-29T16:11:58.319Z,99079.39
2023-01-29T16:14:27.547Z,99082.52
2023-01-29T16:16:56.793Z,99085.95
2023-01-29T16:19:27.547Z,99084.27
2023-01-29T16:22:01.268Z,99091.70
2023-01-29T16:24:30.154Z,99091.43
2023-01-29T16:27:03.839Z,99087.41
2023-01-29T16:29:33.429Z,99087.09
2023-01-29T16:32:03.280Z,99082.52
2023-01-29T16:34:50.021Z,99088.14
2023-01-29T16:37:30.344Z,99088.23
2023-01-29T16:39:59.100Z,99093.45
2023-01-29T16:42:29.447Z,99092.27
2023-01-29T16:45:02.736Z,99090.06
2023-01-29T16:47:37.912Z,99091.23
2023-01-29T16:50:18.743Z,99093.77
2023-01-29T16:52:58.296Z,99095.37
2023-01-29T16:55:26.876Z,99088.33
2023-01-29T16:57:56.170Z,99086.25
2023-01-29T17:00:27.367Z,99086.45
2023-01-29T17:02:59.797Z,99082.97
2023-01-29T17:05:31.537Z,99085.40
2023-01-29T17:08:00.328Z,99079.26
2023-01-29T17:10:29.339Z,99074.80
2023-01-29T17:13:00.483Z,99074.66
2023-01-29T17:15:47.817Z,99073.46
2023-01-29T17:18:20.778Z,99078.39
2023-01-29T17:28:28.558Z,99065.09
2023-01-29T17:31:06.284Z,99058.71
2023-01-29T17:33:38.874Z,99063.19
2023-01-29T17:36:15.287Z,99062.94
2023-01-29T17:38:43.944Z,99062.94
2023-01-29T17:41:20.316Z,99061.36
2023-01-29T17:43:49.018Z,99057.39
2023-01-29T17:46:17.991Z,99059.95
2023-01-29T17:48:46.880Z,99058.59
2023-01-29T17:51:17.519Z,99060.98
2023-01-29T17:53:47.072Z,99052.42
2023-01-29T17:56:30.151Z,99048.91
2023-01-29T17:58:58.829Z,99041.02
2023-01-29T18:01:27.565Z,99037.63
2023-01-29T18:03:56.840Z,99041.66
2023-01-29T18:06:29.527Z,99038.46
2023-01-29T18:08:59.003Z,99037.85
2023-01-29T18:11:28.397Z,99036.92
2023-01-29T18:13:57.487Z,99029.30
2023-01-29T18:16:27.014Z,99025.84
2023-01-29T18:18:57.027Z,99027.05
2023-01-29T18:21:26.045Z,99028.80
2023-01-29T18:23:54.379Z,99030.20
2023-01-29T18:26:23.132Z,99031.85
2023-01-29T18:28:52.467Z,99027.10
2023-01-29T18:31:21.691Z,99025.22
2023-01-29T18:33:50.260Z,99026.06
2023-01-29T18:36:19.171Z,99025.11
2023-01-29T18:38:49.086Z,99024.51
2023-01-29T18:41:18.560Z,99015.31
2023-01-29T18:43:48.061Z,99010.81
2023-01-29T18:46:17.017Z,99010.10
2023-01-29T18:48:46.661Z,99007.37
2023-01-29T18:51:15.566Z,99007.25
2023-01-29T18:53:46.553Z,99005.05
2023-01-29T18:56:15.688Z,98996.73
2023-01-29T18:58:52.097Z,98995.16
2023-01-29T19:01:27.583Z,98999.25
2023-01-29T19:03:56.493Z,98994.81
2023-01-29T19:06:24.971Z,98991.67
2023-01-29T19:08:55.395Z,98991.77
2023-01-29T19:11:24.120Z,98994.52
2023-01-29T19:13:53.376Z,98995.84
2023-01-29T19:16:23.705Z,98998.92
2023-01-29T19:18:53.825Z,98996.33
2023-01-29T19:21:22.422Z,98995.94
2023-01-29T19:23:52.261Z,98994.54
2023-01-29T19:26:21.249Z,98996.74
2023-01-29T19:28:51.341Z,98994.59
2023-01-29T19:31:24.035Z,98992.40
2023-01-29T19:33:52.797Z,98991.60
2023-01-29T19:36:21.689Z,98987.40
2023-01-29T19:38:50.843Z,98984.88
2023-01-29T19:41:19.367Z,98985.73
2023-01-29T19:43:48.566Z,98985.54
2023-01-29T19:46:17.874Z,98988.40
2023-01-29T19:48:46.961Z,98990.02
2023-01-29T19:51:15.437Z,98982.36
2023-01-29T19:53:44.533Z,98979.70
2023-01-29T19:56:15.263Z,98984.20
2023-01-29T19:58:44.055Z,98984.01
2023-01-29T20:01:14.850Z,98986.03
2023-01-29T20:03:46.772Z,98988.56
2023-01-29T20:06:16.841Z,98986.64
2023-01-29T20:08:46.788Z,98990.19
2023-01-29T20:11:20.526Z,98985.66
2023-01-29T20:13:50.381Z,98983.64
2023-01-29T20:16:19.150Z,98990.50
2023-01-29T20:18:49.818Z,98989.00
2023-01-29T20:21:21.159Z,98995.22
2023-01-29T20:23:51.903Z,98995.75
2023-01-29T20:26:20.538Z,98996.73
2023-01-29T20:28:49.578Z,98995.56
2023-01-29T20:31:18.417Z,98993.72
2023-01-29T20:33:47.360Z,98994.08
2023-01-29T20:36:16.050Z,98988.23
2023-01-29T20:38:44.932Z,98976.89
2023-01-29T20:41:14.975Z,98978.65
2023-01-29T20:43:44.408Z,98980.54
2023-01-29T20:46:13.466Z,98974.05
2023-01-29T20:48:44.200Z,98966.20
2023-01-29T20:51:15.841Z,98967.23
2023-01-29T20:53:45.820Z,98966.37
2023-01-29T20:56:16.193Z,98966.93
2023-01-29T20:58:45.182Z,98959.07
2023-01-29T21:01:16.607Z,98960.66
2023-01-29T21:03:45.309Z,98956.33
2023-01-29T21:06:14.319Z,98952.06
2023-01-29T21:08:44.929Z,98952.63
2023-01-29T21:11:14.023Z,98950.86
2023-01-29T21:13:44.352Z,98950.25
2023-01-29T21:16:13.747Z,98956.23
2023-01-29T21:18:42.434Z,98957.13
2023-01-29T21:21:11.444Z,98956.41
2023-01-29T21:23:40.221Z,98951.70
2023-01-29T21:26:09.452Z,98949.67
2023-01-29T21:28:38.211Z,98947.19
2023-01-29T21:31:11.390Z,98945.16
2023-01-29T21:33:39.876Z,98940.63
2023-01-29T21:36:10.299Z,98938.73
2023-01-29T21:38:39.184Z,98945.44
2023-01-29T21:41:09.203Z,98948.08
2023-01-29T21:43:37.724Z,98948.05
2023-01-29T21:46:12.264Z,98946.04
2023-01-29T21:48:40.910Z,98942.63
2023-01-29T21:51:09.495Z,98941.22
2023-01-29T21:53:38.495Z,98939.48
2023-01-29T21:56:07.150Z,98938.29
2023-01-29T21:58:35.848Z,98935.48
2023-01-29T22:01:36.403Z,98928.54
2023-01-29T22:04:09.062Z,98926.52
2023-01-29T22:06:37.546Z,98923.13
2023-01-29T22:09:07.775Z,98910.27
2023-01-29T22:11:37.049Z,98915.83
2023-01-29T22:14:06.069Z,98913.24
2023-01-29T22:16:36.313Z,98907.59
2023-01-29T22:19:05.458Z,98910.12
2023-01-29T22:21:35.880Z,98905.36
2023-01-29T22:24:05.391Z,98904.34
2023-01-29T22:26:34.485Z,98901.88
2023-01-29T22:29:03.181Z,98903.87
2023-01-29T22:31:31.876Z,98893.25
2023-01-29T22:34:00.540Z,98890.28
2023-01-29T22:36:29.230Z,98889.45
2023-01-29T22:38:57.918Z,98893.64
2023-01-29T22:41:27.529Z,98889.27
2023-01-29T22:43:56.204Z,98885.23
2023-01-29T22:46:25.465Z,98877.73
2023-01-29T22:48:54.750Z,98877.99
2023-01-29T22:51:23.597Z,98876.09
2023-01-29T22:53:54.233Z,98875.67
2023-01-29T22:56:25.588Z,98870.73
2023-01-29T22:58:55.795Z,98872.70
2023-01-29T23:01:28.693Z,98868.21
2023-01-29T23:03:57.367Z,98868.11
2023-01-29T23:06:26.058Z,98872.65
2023-01-29T23:08:54.535Z,98866.11
2023-01-29T23:11:24.137Z,98858.71
2023-01-29T23:13:55.757Z,98856.72
2023-01-29T23:16:27.688Z,98855.67
2023-01-29T23:18:56.928Z,98857.98
2023-01-29T23:21:26.170Z,98856.66
2023-01-29T23:24:01.613Z,98857.49
2023-01-29T23:26:49.458Z,98856.50
2023-01-29T23:29:18.159Z,98849.45
2023-01-29T23:31:47.806Z,98842.02
2023-01-29T23:34:16.832Z,98843.75
2023-01-29T23:36:45.204Z,98840.83
2023-01-29T23:39:13.782Z,98842.63
2023-01-29T23:41:42.460Z,98844.48
2023-01-29T23:44:10.940Z,98840.12
2023-01-29T23:46:39.962Z,98829.15
2023-01-29T23:49:08.924Z,98824.84
2023-01-29T23:51:37.306Z,98821.22
2023-01-29T23:54:05.899Z,98816.91
2023-01-29T23:56:34.574Z,98816.45
2023-01-29T23:59:03.216Z,98815.86
